sensor_id;sensor_type;location;lat;lon;timestamp;P1;durP1;ratioP1;P2;durP2;ratioP2
59790;SDS011;47431;51.640;5.554;2023-12-07T00:01:05;40.77;;;25.80;;
59790;SDS011;47431;51.640;5.554;2023-12-07T00:03:30;41.03;;;26.67;;
59790;SDS011;47431;51.640;5.554;2023-12-07T00:05:56;41.83;;;24.80;;
59790;SDS011;47431;51.640;5.554;2023-12-07T00:08:21;38.53;;;24.37;;
59790;SDS011;47431;51.640;5.554;2023-12-07T00:10:46;42.03;;;25.37;;
59790;SDS011;47431;51.640;5.554;2023-12-07T00:13:12;48.10;;;26.53;;
59790;SDS011;47431;51.640;5.554;2023-12-07T00:15:37;40.50;;;22.57;;
59790;SDS011;47431;51.640;5.554;2023-12-07T00:18:03;63.07;;;25.20;;
59790;SDS011;47431;51.640;5.554;2023-12-07T00:20:29;103.40;;;27.33;;
59790;SDS011;47431;51.640;5.554;2023-12-07T00:22:54;73.57;;;26.40;;
59790;SDS011;47431;51.640;5.554;2023-12-07T00:25:20;95.17;;;27.27;;
59790;SDS011;47431;51.640;5.554;2023-12-07T00:27:46;86.80;;;30.20;;
59790;SDS011;47431;51.640;5.554;2023-12-07T00:30:12;98.83;;;30.43;;
59790;SDS011;47431;51.640;5.554;2023-12-07T00:32:37;145.27;;;36.47;;
59790;SDS011;47431;51.640;5.554;2023-12-07T00:35:03;51.60;;;24.77;;
59790;SDS011;47431;51.640;5.554;2023-12-07T00:37:29;37.97;;;23.83;;
59790;SDS011;47431;51.640;5.554;2023-12-07T00:39:54;69.50;;;25.80;;
59790;SDS011;47431;51.640;5.554;2023-12-07T00:42:20;90.90;;;28.07;;
59790;SDS011;47431;51.640;5.554;2023-12-07T00:44:45;59.80;;;24.67;;
59790;SDS011;47431;51.640;5.554;2023-12-07T00:47:10;36.43;;;23.53;;
59790;SDS011;47431;51.640;5.554;2023-12-07T00:49:39;32.23;;;20.87;;
59790;SDS011;47431;51.640;5.554;2023-12-07T00:52:05;37.50;;;22.03;;
59790;SDS011;47431;51.640;5.554;2023-12-07T00:54:31;34.50;;;21.10;;
59790;SDS011;47431;51.640;5.554;2023-12-07T00:56:57;35.60;;;22.17;;
59790;SDS011;47431;51.640;5.554;2023-12-07T00:59:23;37.43;;;22.77;;
59790;SDS011;47431;51.640;5.554;2023-12-07T01:01:48;26.67;;;19.53;;
59790;SDS011;47431;51.640;5.554;2023-12-07T01:04:14;27.23;;;18.80;;
59790;SDS011;47431;51.640;5.554;2023-12-07T01:06:39;35.03;;;20.77;;
59790;SDS011;47431;51.640;5.554;2023-12-07T01:09:04;33.20;;;21.87;;
59790;SDS011;47431;51.640;5.554;2023-12-07T01:11:30;152.90;;;35.43;;
59790;SDS011;47431;51.640;5.554;2023-12-07T01:13:55;33.53;;;20.83;;
59790;SDS011;47431;51.640;5.554;2023-12-07T01:16:21;33.57;;;22.23;;
59790;SDS011;47431;51.640;5.554;2023-12-07T01:18:46;38.43;;;22.63;;
59790;SDS011;47431;51.640;5.554;2023-12-07T01:21:11;35.83;;;23.03;;
59790;SDS011;47431;51.640;5.554;2023-12-07T01:23:37;36.67;;;23.53;;
59790;SDS011;47431;51.640;5.554;2023-12-07T01:26:02;36.80;;;22.10;;
59790;SDS011;47431;51.640;5.554;2023-12-07T01:28:28;36.50;;;21.97;;
59790;SDS011;47431;51.640;5.554;2023-12-07T01:30:54;32.37;;;22.33;;
59790;SDS011;47431;51.640;5.554;2023-12-07T01:33:21;42.13;;;22.10;;
59790;SDS011;47431;51.640;5.554;2023-12-07T01:35:46;144.23;;;35.10;;
59790;SDS011;47431;51.640;5.554;2023-12-07T01:38:12;94.60;;;29.67;;
59790;SDS011;47431;51.640;5.554;2023-12-07T01:40:37;41.37;;;23.10;;
59790;SDS011;47431;51.640;5.554;2023-12-07T01:43:02;38.87;;;23.60;;
59790;SDS011;47431;51.640;5.554;2023-12-07T01:45:28;35.00;;;22.80;;
59790;SDS011;47431;51.640;5.554;2023-12-07T01:47:53;32.70;;;21.50;;
59790;SDS011;47431;51.640;5.554;2023-12-07T01:50:21;48.73;;;25.37;;
59790;SDS011;47431;51.640;5.554;2023-12-07T01:52:48;449.93;;;82.87;;
59790;SDS011;47431;51.640;5.554;2023-12-07T01:55:16;241.90;;;49.60;;
59790;SDS011;47431;51.640;5.554;2023-12-07T01:57:43;34.73;;;22.03;;
59790;SDS011;47431;51.640;5.554;2023-12-07T02:00:09;57.70;;;25.77;;
59790;SDS011;47431;51.640;5.554;2023-12-07T02:02:36;115.80;;;31.17;;
59790;SDS011;47431;51.640;5.554;2023-12-07T02:05:02;103.97;;;30.20;;
59790;SDS011;47431;51.640;5.554;2023-12-07T02:07:28;39.03;;;23.97;;
59790;SDS011;47431;51.640;5.554;2023-12-07T02:09:55;45.50;;;23.27;;
59790;SDS011;47431;51.640;5.554;2023-12-07T02:12:22;40.33;;;22.23;;
59790;SDS011;47431;51.640;5.554;2023-12-07T02:14:49;186.73;;;39.53;;
59790;SDS011;47431;51.640;5.554;2023-12-07T02:22:22;295.10;;;54.77;;
59790;SDS011;47431;51.640;5.554;2023-12-07T02:25:06;163.07;;;34.13;;
59790;SDS011;47431;51.640;5.554;2023-12-07T02:27:39;95.03;;;30.93;;
59790;SDS011;47431;51.640;5.554;2023-12-07T02:30:10;72.03;;;28.13;;
59790;SDS011;47431;51.640;5.554;2023-12-07T02:32:39;56.67;;;24.40;;
59790;SDS011;47431;51.640;5.554;2023-12-07T02:35:06;63.00;;;23.57;;
59790;SDS011;47431;51.640;5.554;2023-12-07T02:37:34;46.97;;;20.03;;
59790;SDS011;47431;51.640;5.554;2023-12-07T02:40:03;86.50;;;28.87;;
59790;SDS011;47431;51.640;5.554;2023-12-07T02:42:30;101.40;;;28.60;;
59790;SDS011;47431;51.640;5.554;2023-12-07T02:44:57;61.57;;;22.57;;
59790;SDS011;47431;51.640;5.554;2023-12-07T02:47:23;66.33;;;23.13;;
59790;SDS011;47431;51.640;5.554;2023-12-07T02:49:49;65.27;;;22.83;;
59790;SDS011;47431;51.640;5.554;2023-12-07T02:52:14;52.90;;;21.40;;
59790;SDS011;47431;51.640;5.554;2023-12-07T02:54:40;47.57;;;20.07;;
59790;SDS011;47431;51.640;5.554;2023-12-07T02:57:05;54.93;;;23.73;;
59790;SDS011;47431;51.640;5.554;2023-12-07T02:59:30;58.70;;;22.70;;
59790;SDS011;47431;51.640;5.554;2023-12-07T03:01:56;69.53;;;25.57;;
59790;SDS011;47431;51.640;5.554;2023-12-07T03:04:21;49.80;;;22.33;;
59790;SDS011;47431;51.640;5.554;2023-12-07T03:06:46;49.07;;;23.90;;
59790;SDS011;47431;51.640;5.554;2023-12-07T03:09:12;46.93;;;23.60;;
59790;SDS011;47431;51.640;5.554;2023-12-07T03:11:37;57.23;;;27.20;;
59790;SDS011;47431;51.640;5.554;2023-12-07T03:14:02;68.03;;;28.00;;
59790;SDS011;47431;51.640;5.554;2023-12-07T03:16:28;63.43;;;26.07;;
59790;SDS011;47431;51.640;5.554;2023-12-07T03:18:54;94.53;;;28.67;;
59790;SDS011;47431;51.640;5.554;2023-12-07T03:21:19;98.60;;;35.23;;
59790;SDS011;47431;51.640;5.554;2023-12-07T03:23:45;93.97;;;35.57;;
59790;SDS011;47431;51.640;5.554;2023-12-07T03:26:10;183.20;;;45.03;;
59790;SDS011;47431;51.640;5.554;2023-12-07T03:28:35;238.00;;;63.67;;
59790;SDS011;47431;51.640;5.554;2023-12-07T03:31:02;240.37;;;72.63;;
59790;SDS011;47431;51.640;5.554;2023-12-07T03:33:28;262.17;;;82.67;;
59790;SDS011;47431;51.640;5.554;2023-12-07T03:35:53;175.27;;;46.43;;
59790;SDS011;47431;51.640;5.554;2023-12-07T03:38:18;172.97;;;49.53;;
59790;SDS011;47431;51.640;5.554;2023-12-07T03:40:44;146.00;;;48.03;;
59790;SDS011;47431;51.640;5.554;2023-12-07T03:43:12;93.30;;;37.03;;
59790;SDS011;47431;51.640;5.554;2023-12-07T03:45:38;192.87;;;51.70;;
59790;SDS011;47431;51.640;5.554;2023-12-07T03:48:04;162.53;;;52.43;;
59790;SDS011;47431;51.640;5.554;2023-12-07T03:50:29;187.77;;;55.67;;
59790;SDS011;47431;51.640;5.554;2023-12-07T03:52:55;164.40;;;48.03;;
59790;SDS011;47431;51.640;5.554;2023-12-07T03:55:20;251.30;;;77.53;;
59790;SDS011;47431;51.640;5.554;2023-12-07T03:57:45;101.53;;;37.67;;
59790;SDS011;47431;51.640;5.554;2023-12-07T04:00:11;182.80;;;48.93;;
59790;SDS011;47431;51.640;5.554;2023-12-07T04:02:38;124.03;;;43.27;;
59790;SDS011;47431;51.640;5.554;2023-12-07T04:05:03;129.87;;;37.40;;
59790;SDS011;47431;51.640;5.554;2023-12-07T04:07:29;128.50;;;41.33;;
59790;SDS011;47431;51.640;5.554;2023-12-07T04:09:55;169.37;;;58.53;;
59790;SDS011;47431;51.640;5.554;2023-12-07T04:12:21;93.73;;;34.33;;
59790;SDS011;47431;51.640;5.554;2023-12-07T04:14:47;151.83;;;42.60;;
59790;SDS011;47431;51.640;5.554;2023-12-07T04:17:12;139.87;;;45.23;;
59790;SDS011;47431;51.640;5.554;2023-12-07T04:19:37;161.97;;;42.70;;
59790;SDS011;47431;51.640;5.554;2023-12-07T04:22:03;136.53;;;39.03;;
59790;SDS011;47431;51.640;5.554;2023-12-07T04:24:28;122.33;;;36.30;;
59790;SDS011;47431;51.640;5.554;2023-12-07T04:26:54;101.40;;;38.20;;
59790;SDS011;47431;51.640;5.554;2023-12-07T04:29:20;119.37;;;35.57;;
59790;SDS011;47431;51.640;5.554;2023-12-07T04:31:45;128.90;;;34.43;;
59790;SDS011;47431;51.640;5.554;2023-12-07T04:34:10;131.53;;;38.40;;
59790;SDS011;47431;51.640;5.554;2023-12-07T04:36:36;153.23;;;39.40;;
59790;SDS011;47431;51.640;5.554;2023-12-07T04:39:01;158.57;;;39.57;;
59790;SDS011;47431;51.640;5.554;2023-12-07T04:41:26;217.90;;;59.30;;
59790;SDS011;47431;51.640;5.554;2023-12-07T04:43:52;156.30;;;41.77;;
59790;SDS011;47431;51.640;5.554;2023-12-07T04:46:17;116.57;;;33.43;;
59790;SDS011;47431;51.640;5.554;2023-12-07T04:48:43;119.40;;;39.50;;
59790;SDS011;47431;51.640;5.554;2023-12-07T04:51:08;184.37;;;53.87;;
59790;SDS011;47431;51.640;5.554;2023-12-07T04:53:33;164.97;;;47.33;;
59790;SDS011;47431;51.640;5.554;2023-12-07T04:55:59;186.03;;;39.37;;
59790;SDS011;47431;51.640;5.554;2023-12-07T04:58:24;134.17;;;43.33;;
59790;SDS011;47431;51.640;5.554;2023-12-07T05:00:49;159.97;;;48.20;;
59790;SDS011;47431;51.640;5.554;2023-12-07T05:03:15;112.40;;;38.80;;
59790;SDS011;47431;51.640;5.554;2023-12-07T05:05:40;147.80;;;42.77;;
59790;SDS011;47431;51.640;5.554;2023-12-07T05:08:05;257.57;;;64.27;;
59790;SDS011;47431;51.640;5.554;2023-12-07T05:10:31;144.23;;;43.77;;
59790;SDS011;47431;51.640;5.554;2023-12-07T05:12:56;236.50;;;61.50;;
59790;SDS011;47431;51.640;5.554;2023-12-07T05:15:22;139.77;;;44.30;;
59790;SDS011;47431;51.640;5.554;2023-12-07T05:17:47;127.80;;;40.00;;
59790;SDS011;47431;51.640;5.554;2023-12-07T05:20:13;301.40;;;72.87;;
59790;SDS011;47431;51.640;5.554;2023-12-07T05:22:38;302.63;;;79.13;;
59790;SDS011;47431;51.640;5.554;2023-12-07T05:25:04;168.53;;;44.73;;
59790;SDS011;47431;51.640;5.554;2023-12-07T05:27:30;147.33;;;41.27;;
59790;SDS011;47431;51.640;5.554;2023-12-07T05:29:55;195.87;;;46.77;;
59790;SDS011;47431;51.640;5.554;2023-12-07T05:32:21;224.07;;;53.37;;
59790;SDS011;47431;51.640;5.554;2023-12-07T05:34:47;173.40;;;41.00;;
59790;SDS011;47431;51.640;5.554;2023-12-07T05:37:12;246.73;;;47.13;;
59790;SDS011;47431;51.640;5.554;2023-12-07T05:39:37;241.60;;;50.27;;
59790;SDS011;47431;51.640;5.554;2023-12-07T05:42:03;243.10;;;57.87;;
59790;SDS011;47431;51.640;5.554;2023-12-07T05:44:29;300.37;;;58.93;;
59790;SDS011;47431;51.640;5.554;2023-12-07T05:46:55;315.33;;;60.93;;
59790;SDS011;47431;51.640;5.554;2023-12-07T05:49:22;183.23;;;40.17;;
59790;SDS011;47431;51.640;5.554;2023-12-07T05:51:48;186.83;;;45.27;;
59790;SDS011;47431;51.640;5.554;2023-12-07T05:54:14;309.13;;;62.13;;
59790;SDS011;47431;51.640;5.554;2023-12-07T05:56:39;155.30;;;34.10;;
59790;SDS011;47431;51.640;5.554;2023-12-07T05:59:05;264.93;;;60.40;;
59790;SDS011;47431;51.640;5.554;2023-12-07T06:01:31;147.70;;;35.50;;
59790;SDS011;47431;51.640;5.554;2023-12-07T06:03:57;238.27;;;52.57;;
59790;SDS011;47431;51.640;5.554;2023-12-07T06:06:23;211.67;;;38.10;;
59790;SDS011;47431;51.640;5.554;2023-12-07T06:08:48;186.90;;;43.63;;
59790;SDS011;47431;51.640;5.554;2023-12-07T06:11:14;193.47;;;40.80;;
59790;SDS011;47431;51.640;5.554;2023-12-07T06:13:39;187.63;;;37.03;;
59790;SDS011;47431;51.640;5.554;2023-12-07T06:16:05;231.07;;;44.30;;
59790;SDS011;47431;51.640;5.554;2023-12-07T06:18:31;260.53;;;55.30;;
59790;SDS011;47431;51.640;5.554;2023-12-07T06:20:56;151.77;;;32.13;;
59790;SDS011;47431;51.640;5.554;2023-12-07T06:23:21;190.10;;;33.53;;
59790;SDS011;47431;51.640;5.554;2023-12-07T06:25:47;178.10;;;33.77;;
59790;SDS011;47431;51.640;5.554;2023-12-07T06:28:12;155.90;;;31.57;;
59790;SDS011;47431;51.640;5.554;2023-12-07T06:30:38;129.97;;;25.90;;
59790;SDS011;47431;51.640;5.554;2023-12-07T06:33:04;285.53;;;53.00;;
59790;SDS011;47431;51.640;5.554;2023-12-07T06:35:29;347.93;;;54.23;;
59790;SDS011;47431;51.640;5.554;2023-12-07T06:37:55;183.13;;;41.63;;
59790;SDS011;47431;51.640;5.554;2023-12-07T06:40:21;196.47;;;34.27;;
59790;SDS011;47431;51.640;5.554;2023-12-07T06:42:46;235.17;;;46.27;;
59790;SDS011;47431;51.640;5.554;2023-12-07T06:45:13;263.40;;;46.33;;
59790;SDS011;47431;51.640;5.554;2023-12-07T06:47:39;147.67;;;31.57;;
59790;SDS011;47431;51.640;5.554;2023-12-07T06:50:07;177.83;;;35.20;;
59790;SDS011;47431;51.640;5.554;2023-12-07T06:52:36;138.77;;;31.00;;
59790;SDS011;47431;51.640;5.554;2023-12-07T06:55:02;211.73;;;35.03;;
59790;SDS011;47431;51.640;5.554;2023-12-07T06:57:27;211.93;;;36.40;;
59790;SDS011;47431;51.640;5.554;2023-12-07T06:59:53;173.73;;;33.97;;
59790;SDS011;47431;51.640;5.554;2023-12-07T07:02:18;188.03;;;39.00;;
59790;SDS011;47431;51.640;5.554;2023-12-07T07:04:44;182.13;;;32.77;;
59790;SDS011;47431;51.640;5.554;2023-12-07T07:07:09;150.90;;;31.93;;
59790;SDS011;47431;51.640;5.554;2023-12-07T07:09:34;155.00;;;34.40;;
59790;SDS011;47431;51.640;5.554;2023-12-07T07:12:00;160.17;;;35.50;;
59790;SDS011;47431;51.640;5.554;2023-12-07T07:14:25;220.47;;;42.27;;
59790;SDS011;47431;51.640;5.554;2023-12-07T07:16:51;230.20;;;42.03;;
59790;SDS011;47431;51.640;5.554;2023-12-07T07:19:17;170.27;;;35.47;;
59790;SDS011;47431;51.640;5.554;2023-12-07T07:21:42;115.90;;;24.87;;
59790;SDS011;47431;51.640;5.554;2023-12-07T07:24:08;147.17;;;35.33;;
59790;SDS011;47431;51.640;5.554;2023-12-07T07:26:34;144.20;;;30.87;;
59790;SDS011;47431;51.640;5.554;2023-12-07T07:28:59;152.57;;;34.90;;
59790;SDS011;47431;51.640;5.554;2023-12-07T07:31:25;177.00;;;40.80;;
59790;SDS011;47431;51.640;5.554;2023-12-07T07:33:50;192.13;;;38.67;;
59790;SDS011;47431;51.640;5.554;2023-12-07T07:36:15;165.73;;;33.57;;
59790;SDS011;47431;51.640;5.554;2023-12-07T07:38:41;148.07;;;32.50;;
59790;SDS011;47431;51.640;5.554;2023-12-07T07:41:07;117.43;;;26.97;;
59790;SDS011;47431;51.640;5.554;2023-12-07T07:43:32;129.83;;;26.63;;
59790;SDS011;47431;51.640;5.554;2023-12-07T07:45:59;118.17;;;26.23;;
59790;SDS011;47431;51.640;5.554;2023-12-07T07:48:25;169.47;;;33.97;;
59790;SDS011;47431;51.640;5.554;2023-12-07T07:50:51;185.90;;;38.57;;
59790;SDS011;47431;51.640;5.554;2023-12-07T07:53:16;177.33;;;39.60;;
59790;SDS011;47431;51.640;5.554;2023-12-07T07:55:42;163.37;;;38.17;;
59790;SDS011;47431;51.640;5.554;2023-12-07T07:58:08;155.37;;;29.43;;
59790;SDS011;47431;51.640;5.554;2023-12-07T08:00:34;124.83;;;29.23;;
59790;SDS011;47431;51.640;5.554;2023-12-07T08:03:00;133.70;;;27.30;;
59790;SDS011;47431;51.640;5.554;2023-12-07T08:05:25;145.17;;;32.53;;
59790;SDS011;47431;51.640;5.554;2023-12-07T08:07:51;86.23;;;22.30;;
59790;SDS011;47431;51.640;5.554;2023-12-07T08:10:16;180.83;;;41.00;;
59790;SDS011;47431;51.640;5.554;2023-12-07T08:12:42;146.63;;;27.00;;
59790;SDS011;47431;51.640;5.554;2023-12-07T08:15:08;142.23;;;30.90;;
59790;SDS011;47431;51.640;5.554;2023-12-07T08:17:45;133.90;;;31.73;;
59790;SDS011;47431;51.640;5.554;2023-12-07T08:20:10;80.37;;;23.40;;
59790;SDS011;47431;51.640;5.554;2023-12-07T08:22:36;163.00;;;35.20;;
59790;SDS011;47431;51.640;5.554;2023-12-07T08:25:02;119.17;;;28.67;;
59790;SDS011;47431;51.640;5.554;2023-12-07T08:27:30;71.47;;;19.07;;
59790;SDS011;47431;51.640;5.554;2023-12-07T08:29:58;167.97;;;35.30;;
59790;SDS011;47431;51.640;5.554;2023-12-07T08:32:24;164.90;;;37.30;;
59790;SDS011;47431;51.640;5.554;2023-12-07T08:34:51;119.13;;;30.13;;
59790;SDS011;47431;51.640;5.554;2023-12-07T08:37:16;186.47;;;45.60;;
59790;SDS011;47431;51.640;5.554;2023-12-07T08:39:42;158.17;;;35.03;;
59790;SDS011;47431;51.640;5.554;2023-12-07T08:42:07;188.88;;;44.53;;
59790;SDS011;47431;51.640;5.554;2023-12-07T08:44:33;232.70;;;50.57;;
59790;SDS011;47431;51.640;5.554;2023-12-07T08:46:58;161.03;;;40.83;;
59790;SDS011;47431;51.640;5.554;2023-12-07T08:49:24;218.37;;;52.13;;
59790;SDS011;47431;51.640;5.554;2023-12-07T08:51:51;290.13;;;63.97;;
59790;SDS011;47431;51.640;5.554;2023-12-07T08:54:17;196.60;;;48.33;;
59790;SDS011;47431;51.640;5.554;2023-12-07T08:56:46;251.47;;;51.77;;
59790;SDS011;47431;51.640;5.554;2023-12-07T08:59:11;234.57;;;50.67;;
59790;SDS011;47431;51.640;5.554;2023-12-07T09:01:37;253.57;;;53.67;;
59790;SDS011;47431;51.640;5.554;2023-12-07T09:04:02;205.13;;;44.87;;
59790;SDS011;47431;51.640;5.554;2023-12-07T09:06:28;205.27;;;43.20;;
59790;SDS011;47431;51.640;5.554;2023-12-07T09:08:53;213.13;;;50.78;;
59790;SDS011;47431;51.640;5.554;2023-12-07T09:11:20;94.10;;;24.63;;
59790;SDS011;47431;51.640;5.554;2023-12-07T09:13:46;170.80;;;41.67;;
59790;SDS011;47431;51.640;5.554;2023-12-07T09:16:11;250.20;;;63.53;;
59790;SDS011;47431;51.640;5.554;2023-12-07T09:18:37;249.33;;;50.20;;
59790;SDS011;47431;51.640;5.554;2023-12-07T09:21:02;182.20;;;44.17;;
59790;SDS011;47431;51.640;5.554;2023-12-07T09:23:28;232.75;;;56.45;;
59790;SDS011;47431;51.640;5.554;2023-12-07T09:25:53;144.98;;;41.22;;
59790;SDS011;47431;51.640;5.554;2023-12-07T09:28:19;228.32;;;52.25;;
59790;SDS011;47431;51.640;5.554;2023-12-07T09:30:44;183.05;;;48.63;;
59790;SDS011;47431;51.640;5.554;2023-12-07T09:33:10;140.32;;;41.42;;
59790;SDS011;47431;51.640;5.554;2023-12-07T09:35:35;177.00;;;48.10;;
59790;SDS011;47431;51.640;5.554;2023-12-07T09:38:01;169.73;;;38.25;;
59790;SDS011;47431;51.640;5.554;2023-12-07T09:40:26;137.30;;;43.00;;
59790;SDS011;47431;51.640;5.554;2023-12-07T09:42:53;115.60;;;37.45;;
59790;SDS011;47431;51.640;5.554;2023-12-07T09:45:19;156.55;;;44.63;;
59790;SDS011;47431;51.640;5.554;2023-12-07T09:47:48;143.95;;;47.13;;
59790;SDS011;47431;51.640;5.554;2023-12-07T09:50:16;107.38;;;30.45;;
59790;SDS011;47431;51.640;5.554;2023-12-07T09:52:43;146.52;;;40.00;;
59790;SDS011;47431;51.640;5.554;2023-12-07T09:55:09;112.10;;;36.05;;
59790;SDS011;47431;51.640;5.554;2023-12-07T09:57:36;168.27;;;44.13;;
59790;SDS011;47431;51.640;5.554;2023-12-07T10:00:03;151.38;;;38.10;;
59790;SDS011;47431;51.640;5.554;2023-12-07T10:02:29;123.88;;;36.50;;
59790;SDS011;47431;51.640;5.554;2023-12-07T10:05:05;141.82;;;40.78;;
59790;SDS011;47431;51.640;5.554;2023-12-07T10:07:34;87.78;;;29.02;;
59790;SDS011;47431;51.640;5.554;2023-12-07T10:10:02;107.55;;;37.72;;
59790;SDS011;47431;51.640;5.554;2023-12-07T10:12:29;107.72;;;34.92;;
59790;SDS011;47431;51.640;5.554;2023-12-07T10:14:55;82.90;;;23.73;;
59790;SDS011;47431;51.640;5.554;2023-12-07T10:17:21;90.15;;;25.85;;
59790;SDS011;47431;51.640;5.554;2023-12-07T10:19:52;93.80;;;27.95;;
59790;SDS011;47431;51.640;5.554;2023-12-07T10:22:33;102.72;;;31.48;;
59790;SDS011;47431;51.640;5.554;2023-12-07T10:24:59;92.03;;;34.03;;
59790;SDS011;47431;51.640;5.554;2023-12-07T10:27:24;68.85;;;24.40;;
59790;SDS011;47431;51.640;5.554;2023-12-07T10:29:51;98.70;;;33.10;;
59790;SDS011;47431;51.640;5.554;2023-12-07T10:32:16;89.15;;;32.45;;
59790;SDS011;47431;51.640;5.554;2023-12-07T10:34:41;69.88;;;29.30;;
59790;SDS011;47431;51.640;5.554;2023-12-07T10:37:07;74.32;;;28.80;;
59790;SDS011;47431;51.640;5.554;2023-12-07T10:39:32;70.47;;;29.08;;
59790;SDS011;47431;51.640;5.554;2023-12-07T10:41:58;63.80;;;24.20;;
59790;SDS011;47431;51.640;5.554;2023-12-07T10:44:27;56.13;;;23.38;;
59790;SDS011;47431;51.640;5.554;2023-12-07T10:46:53;65.63;;;29.92;;
59790;SDS011;47431;51.640;5.554;2023-12-07T10:49:20;77.45;;;31.02;;
59790;SDS011;47431;51.640;5.554;2023-12-07T10:51:51;60.15;;;27.63;;
59790;SDS011;47431;51.640;5.554;2023-12-07T10:54:22;70.25;;;29.85;;
59790;SDS011;47431;51.640;5.554;2023-12-07T10:56:54;71.07;;;28.13;;
59790;SDS011;47431;51.640;5.554;2023-12-07T10:59:20;70.72;;;32.70;;
59790;SDS011;47431;51.640;5.554;2023-12-07T11:01:49;52.83;;;24.08;;
59790;SDS011;47431;51.640;5.554;2023-12-07T11:04:17;59.00;;;26.05;;
59790;SDS011;47431;51.640;5.554;2023-12-07T11:06:45;53.33;;;27.45;;
59790;SDS011;47431;51.640;5.554;2023-12-07T11:09:15;51.88;;;25.75;;
59790;SDS011;47431;51.640;5.554;2023-12-07T11:11:47;57.63;;;27.00;;
59790;SDS011;47431;51.640;5.554;2023-12-07T11:14:17;55.75;;;27.20;;
59790;SDS011;47431;51.640;5.554;2023-12-07T11:16:44;49.47;;;22.00;;
59790;SDS011;47431;51.640;5.554;2023-12-07T11:21:58;52.75;;;26.63;;
59790;SDS011;47431;51.640;5.554;2023-12-07T11:24:25;48.83;;;27.45;;
59790;SDS011;47431;51.640;5.554;2023-12-07T11:26:54;47.88;;;26.65;;
59790;SDS011;47431;51.640;5.554;2023-12-07T11:29:30;45.72;;;25.35;;
59790;SDS011;47431;51.640;5.554;2023-12-07T11:31:57;47.30;;;27.00;;
59790;SDS011;47431;51.640;5.554;2023-12-07T11:37:04;36.75;;;24.83;;
59790;SDS011;47431;51.640;5.554;2023-12-07T11:39:35;37.30;;;25.98;;
59790;SDS011;47431;51.640;5.554;2023-12-07T11:42:06;39.97;;;25.23;;
59790;SDS011;47431;51.640;5.554;2023-12-07T11:44:33;30.08;;;20.73;;
59790;SDS011;47431;51.640;5.554;2023-12-07T11:46:59;37.65;;;23.73;;
59790;SDS011;47431;51.640;5.554;2023-12-07T11:49:25;37.60;;;23.90;;
59790;SDS011;47431;51.640;5.554;2023-12-07T11:51:52;39.05;;;27.13;;
59790;SDS011;47431;51.640;5.554;2023-12-07T11:54:17;38.63;;;25.23;;
59790;SDS011;47431;51.640;5.554;2023-12-07T11:56:42;31.25;;;23.42;;
59790;SDS011;47431;51.640;5.554;2023-12-07T11:59:08;32.15;;;22.90;;
59790;SDS011;47431;51.640;5.554;2023-12-07T12:01:33;39.55;;;24.63;;
59790;SDS011;47431;51.640;5.554;2023-12-07T12:04:02;38.00;;;25.80;;
59790;SDS011;47431;51.640;5.554;2023-12-07T12:06:29;35.13;;;25.05;;
59790;SDS011;47431;51.640;5.554;2023-12-07T12:08:55;37.60;;;26.60;;
59790;SDS011;47431;51.640;5.554;2023-12-07T12:11:21;30.52;;;22.58;;
59790;SDS011;47431;51.640;5.554;2023-12-07T12:13:46;38.40;;;24.92;;
59790;SDS011;47431;51.640;5.554;2023-12-07T12:16:12;39.30;;;27.15;;
59790;SDS011;47431;51.640;5.554;2023-12-07T12:18:38;34.47;;;24.85;;
59790;SDS011;47431;51.640;5.554;2023-12-07T12:21:03;34.72;;;23.98;;
59790;SDS011;47431;51.640;5.554;2023-12-07T12:23:31;36.50;;;26.08;;
59790;SDS011;47431;51.640;5.554;2023-12-07T12:25:56;36.20;;;23.98;;
59790;SDS011;47431;51.640;5.554;2023-12-07T12:28:23;36.20;;;25.17;;
59790;SDS011;47431;51.640;5.554;2023-12-07T12:30:49;39.80;;;25.92;;
59790;SDS011;47431;51.640;5.554;2023-12-07T12:33:15;34.15;;;26.25;;
59790;SDS011;47431;51.640;5.554;2023-12-07T12:35:41;38.33;;;24.67;;
59790;SDS011;47431;51.640;5.554;2023-12-07T12:38:10;38.67;;;25.98;;
59790;SDS011;47431;51.640;5.554;2023-12-07T12:40:36;32.45;;;21.63;;
59790;SDS011;47431;51.640;5.554;2023-12-07T12:43:02;44.28;;;24.48;;
59790;SDS011;47431;51.640;5.554;2023-12-07T12:45:27;30.33;;;23.42;;
59790;SDS011;47431;51.640;5.554;2023-12-07T12:47:53;34.63;;;24.60;;
59790;SDS011;47431;51.640;5.554;2023-12-07T12:50:38;35.30;;;26.10;;
59790;SDS011;47431;51.640;5.554;2023-12-07T12:53:06;36.35;;;28.27;;
59790;SDS011;47431;51.640;5.554;2023-12-07T12:55:36;41.75;;;29.90;;
59790;SDS011;47431;51.640;5.554;2023-12-07T12:58:03;41.25;;;28.30;;
59790;SDS011;47431;51.640;5.554;2023-12-07T13:00:29;41.58;;;31.75;;
59790;SDS011;47431;51.640;5.554;2023-12-07T13:02:55;41.92;;;30.17;;
59790;SDS011;47431;51.640;5.554;2023-12-07T13:05:21;43.35;;;29.73;;
59790;SDS011;47431;51.640;5.554;2023-12-07T13:07:46;42.42;;;31.48;;
59790;SDS011;47431;51.640;5.554;2023-12-07T13:10:15;40.05;;;28.60;;
59790;SDS011;47431;51.640;5.554;2023-12-07T13:12:41;46.00;;;30.52;;
59790;SDS011;47431;51.640;5.554;2023-12-07T13:15:06;38.53;;;24.85;;
59790;SDS011;47431;51.640;5.554;2023-12-07T13:17:33;35.30;;;23.65;;
59790;SDS011;47431;51.640;5.554;2023-12-07T13:19:58;35.78;;;24.83;;
59790;SDS011;47431;51.640;5.554;2023-12-07T13:22:23;36.17;;;22.75;;
59790;SDS011;47431;51.640;5.554;2023-12-07T13:24:49;35.13;;;22.30;;
59790;SDS011;47431;51.640;5.554;2023-12-07T13:27:17;37.10;;;25.98;;
59790;SDS011;47431;51.640;5.554;2023-12-07T13:29:43;35.60;;;23.33;;
59790;SDS011;47431;51.640;5.554;2023-12-07T13:32:08;33.53;;;21.48;;
59790;SDS011;47431;51.640;5.554;2023-12-07T13:34:35;34.60;;;24.35;;
59790;SDS011;47431;51.640;5.554;2023-12-07T13:37:00;41.65;;;27.33;;
59790;SDS011;47431;51.640;5.554;2023-12-07T13:39:25;35.90;;;21.52;;
59790;SDS011;47431;51.640;5.554;2023-12-07T13:41:55;41.47;;;25.60;;
59790;SDS011;47431;51.640;5.554;2023-12-07T13:44:21;34.83;;;20.80;;
59790;SDS011;47431;51.640;5.554;2023-12-07T13:46:46;39.95;;;26.92;;
59790;SDS011;47431;51.640;5.554;2023-12-07T13:49:12;37.85;;;25.38;;
59790;SDS011;47431;51.640;5.554;2023-12-07T13:51:39;38.85;;;21.77;;
59790;SDS011;47431;51.640;5.554;2023-12-07T13:54:04;40.47;;;24.65;;
59790;SDS011;47431;51.640;5.554;2023-12-07T13:56:30;43.60;;;25.40;;
59790;SDS011;47431;51.640;5.554;2023-12-07T13:58:55;41.10;;;25.15;;
59790;SDS011;47431;51.640;5.554;2023-12-07T14:01:21;39.20;;;23.95;;
59790;SDS011;47431;51.640;5.554;2023-12-07T14:03:46;53.22;;;29.88;;
59790;SDS011;47431;51.640;5.554;2023-12-07T14:06:20;42.95;;;27.10;;
59790;SDS011;47431;51.640;5.554;2023-12-07T14:08:48;46.25;;;30.05;;
59790;SDS011;47431;51.640;5.554;2023-12-07T14:11:14;39.80;;;26.20;;
59790;SDS011;47431;51.640;5.554;2023-12-07T14:13:39;41.70;;;27.55;;
59790;SDS011;47431;51.640;5.554;2023-12-07T14:16:05;39.13;;;20.02;;
59790;SDS011;47431;51.640;5.554;2023-12-07T14:18:33;39.72;;;23.33;;
59790;SDS011;47431;51.640;5.554;2023-12-07T14:20:59;51.75;;;26.15;;